sensor_id;sensor_type;location;lat;lon;timestamp;pressure;altitude;pressure_sealevel;temperature;humidity
59043;BME280;44826;51.596;5.624;2022-10-14T00:01:14;101439.84;;;11.94;97.72
59043;BME280;44826;51.596;5.624;2022-10-14T00:03:40;101441.63;;;11.93;97.73
59043;BME280;44826;51.596;5.624;2022-10-14T00:06:11;101439.84;;;11.94;97.58
59043;BME280;44826;51.596;5.624;2022-10-14T00:08:37;101440.72;;;11.94;97.67
59043;BME280;44826;51.596;5.624;2022-10-14T00:11:08;101438.97;;;11.95;97.77
59043;BME280;44826;51.596;5.624;2022-10-14T00:13:34;101441.53;;;11.96;97.75
59043;BME280;44826;51.596;5.624;2022-10-14T00:16:00;101443.28;;;11.96;97.69
59043;BME280;44826;51.596;5.624;2022-10-14T00:18:25;101438.94;;;11.96;97.52
59043;BME280;44826;51.596;5.624;2022-10-14T00:20:58;101445.00;;;11.98;97.79
59043;BME280;44826;51.596;5.624;2022-10-14T00:23:24;101437.19;;;11.98;97.81
59043;BME280;44826;51.596;5.624;2022-10-14T00:25:50;101442.38;;;11.98;97.80
59043;BME280;44826;51.596;5.624;2022-10-14T00:28:15;101444.09;;;11.99;97.57
59043;BME280;44826;51.596;5.624;2022-10-14T00:30:41;101448.47;;;11.99;97.58
59043;BME280;44826;51.596;5.624;2022-10-14T00:33:06;101444.09;;;11.99;97.81
59043;BME280;44826;51.596;5.624;2022-10-14T00:35:31;101443.22;;;12.01;97.68
59043;BME280;44826;51.596;5.624;2022-10-14T00:37:57;101446.69;;;12.01;97.82
59043;BME280;44826;51.596;5.624;2022-10-14T00:40:24;101436.28;;;12.01;97.59
59043;BME280;44826;51.596;5.624;2022-10-14T00:42:50;101437.13;;;12.02;97.65
59043;BME280;44826;51.596;5.624;2022-10-14T00:45:20;101434.50;;;12.02;97.63
59043;BME280;44826;51.596;5.624;2022-10-14T00:47:46;101428.41;;;12.03;97.46
59043;BME280;44826;51.596;5.624;2022-10-14T00:50:13;101430.13;;;12.04;97.45
59043;BME280;44826;51.596;5.624;2022-10-14T00:52:40;101427.50;;;12.04;97.30
59043;BME280;44826;51.596;5.624;2022-10-14T00:55:11;101417.97;;;12.03;97.49
59043;BME280;44826;51.596;5.624;2022-10-14T00:57:38;101430.13;;;12.04;97.09
59043;BME280;44826;51.596;5.624;2022-10-14T01:00:09;101422.34;;;12.02;97.30
59043;BME280;44826;51.596;5.624;2022-10-14T01:02:35;101423.19;;;12.03;97.18
59043;BME280;44826;51.596;5.624;2022-10-14T01:05:03;101413.63;;;12.03;97.22
59043;BME280;44826;51.596;5.624;2022-10-14T01:07:57;101413.63;;;12.03;97.25
59043;BME280;44826;51.596;5.624;2022-10-14T01:10:44;101416.19;;;12.05;97.06
59043;BME280;44826;51.596;5.624;2022-10-14T01:24:17;101402.25;;;12.06;96.52
59043;BME280;44826;51.596;5.624;2022-10-14T01:26:55;101395.31;;;12.05;96.56
59043;BME280;44826;51.596;5.624;2022-10-14T01:32:31;101381.47;;;12.03;96.30
59043;BME280;44826;51.596;5.624;2022-10-14T01:38:02;101369.31;;;12.02;96.32
59043;BME280;44826;51.596;5.624;2022-10-14T01:40:34;101362.38;;;12.01;96.32
59043;BME280;44826;51.596;5.624;2022-10-14T01:43:03;101358.94;;;11.98;96.33
59043;BME280;44826;51.596;5.624;2022-10-14T01:45:32;101348.50;;;11.98;96.31
59043;BME280;44826;51.596;5.624;2022-10-14T01:47:59;101345.94;;;11.97;96.49
59043;BME280;44826;51.596;5.624;2022-10-14T01:50:27;101341.56;;;11.97;96.40
59043;BME280;44826;51.596;5.624;2022-10-14T01:53:06;101335.53;;;11.95;96.61
59043;BME280;44826;51.596;5.624;2022-10-14T01:55:40;101336.44;;;11.94;96.54
59043;BME280;44826;51.596;5.624;2022-10-14T01:58:08;101331.28;;;11.91;96.47
59043;BME280;44826;51.596;5.624;2022-10-14T02:00:35;101335.59;;;11.92;96.66
59043;BME280;44826;51.596;5.624;2022-10-14T02:03:02;101336.50;;;11.91;96.87
59043;BME280;44826;51.596;5.624;2022-10-14T02:05:33;101339.09;;;11.91;96.72
59043;BME280;44826;51.596;5.624;2022-10-14T02:08:09;101346.94;;;11.90;96.88
59043;BME280;44826;51.596;5.624;2022-10-14T02:10:55;101347.81;;;11.90;96.94
59043;BME280;44826;51.596;5.624;2022-10-14T02:16:40;101335.59;;;11.92;96.81
59043;BME280;44826;51.596;5.624;2022-10-14T02:19:12;101335.56;;;11.94;96.59
59043;BME280;44826;51.596;5.624;2022-10-14T02:21:47;101329.50;;;11.93;96.71
59043;BME280;44826;51.596;5.624;2022-10-14T02:24:34;101327.75;;;11.94;96.76
59043;BME280;44826;51.596;5.624;2022-10-14T02:27:05;101326.03;;;11.93;96.85
59043;BME280;44826;51.596;5.624;2022-10-14T02:29:32;101328.69;;;11.91;97.04
59043;BME280;44826;51.596;5.624;2022-10-14T02:32:01;101324.28;;;11.93;96.79
59043;BME280;44826;51.596;5.624;2022-10-14T02:34:27;101328.63;;;11.93;97.02
59043;BME280;44826;51.596;5.624;2022-10-14T02:36:53;101325.19;;;11.92;96.99
59043;BME280;44826;51.596;5.624;2022-10-14T02:39:45;101332.94;;;11.94;96.82
59043;BME280;44826;51.596;5.624;2022-10-14T02:42:08;101326.91;;;11.93;97.11
59043;BME280;44826;51.596;5.624;2022-10-14T02:44:33;101325.13;;;11.94;97.04
59043;BME280;44826;51.596;5.624;2022-10-14T02:46:59;101331.22;;;11.94;97.03
59043;BME280;44826;51.596;5.624;2022-10-14T02:49:24;101323.41;;;11.94;97.21
59043;BME280;44826;51.596;5.624;2022-10-14T02:51:49;101329.41;;;11.96;97.33
59043;BME280;44826;51.596;5.624;2022-10-14T02:54:15;101330.25;;;11.98;97.16
59043;BME280;44826;51.596;5.624;2022-10-14T02:56:40;101311.13;;;11.98;97.13
59043;BME280;44826;51.596;5.624;2022-10-14T02:59:05;101322.44;;;11.98;97.02
59043;BME280;44826;51.596;5.624;2022-10-14T03:01:31;101317.22;;;11.98;97.08
59043;BME280;44826;51.596;5.624;2022-10-14T03:03:56;101318.09;;;11.99;97.16
59043;BME280;44826;51.596;5.624;2022-10-14T03:06:21;101318.94;;;11.99;97.00
59043;BME280;44826;51.596;5.624;2022-10-14T03:08:47;101309.38;;;12.00;97.35
59043;BME280;44826;51.596;5.624;2022-10-14T03:11:12;101305.03;;;11.97;97.18
59043;BME280;44826;51.596;5.624;2022-10-14T03:13:37;101298.09;;;11.99;97.05
59043;BME280;44826;51.596;5.624;2022-10-14T03:16:03;101291.13;;;12.00;97.07
59043;BME280;44826;51.596;5.624;2022-10-14T03:18:28;101288.53;;;11.98;97.13
59043;BME280;44826;51.596;5.624;2022-10-14T03:20:54;101296.38;;;11.98;97.29
59043;BME280;44826;51.596;5.624;2022-10-14T03:23:19;101287.66;;;11.99;97.30
59043;BME280;44826;51.596;5.624;2022-10-14T03:25:45;101288.53;;;12.00;97.26
59043;BME280;44826;51.596;5.624;2022-10-14T03:28:11;101285.03;;;12.01;97.45
59043;BME280;44826;51.596;5.624;2022-10-14T03:30:37;101278.94;;;12.01;97.38
59043;BME280;44826;51.596;5.624;2022-10-14T03:33:02;101279.81;;;12.01;97.51
59043;BME280;44826;51.596;5.624;2022-10-14T03:35:28;101277.19;;;12.01;97.48
59043;BME280;44826;51.596;5.624;2022-10-14T03:37:53;101278.91;;;12.02;97.61
59043;BME280;44826;51.596;5.624;2022-10-14T03:40:20;101280.66;;;12.02;97.70
59043;BME280;44826;51.596;5.624;2022-10-14T03:42:46;101278.03;;;12.03;97.69
59043;BME280;44826;51.596;5.624;2022-10-14T03:45:11;101268.44;;;12.04;97.62
59043;BME280;44826;51.596;5.624;2022-10-14T03:47:37;101270.16;;;12.05;97.79
59043;BME280;44826;51.596;5.624;2022-10-14T03:50:02;101270.16;;;12.05;97.79
59043;BME280;44826;51.596;5.624;2022-10-14T03:52:29;101262.31;;;12.05;97.63
59043;BME280;44826;51.596;5.624;2022-10-14T03:54:54;101259.72;;;12.05;97.76
59043;BME280;44826;51.596;5.624;2022-10-14T03:57:20;101257.09;;;12.05;97.74
59043;BME280;44826;51.596;5.624;2022-10-14T03:59:45;101254.50;;;12.05;98.08
59043;BME280;44826;51.596;5.624;2022-10-14T04:02:10;101261.44;;;12.06;97.77
59043;BME280;44826;51.596;5.624;2022-10-14T04:04:35;101260.56;;;12.05;97.77
59043;BME280;44826;51.596;5.624;2022-10-14T04:07:01;101262.28;;;12.06;98.02
59043;BME280;44826;51.596;5.624;2022-10-14T04:09:26;101255.31;;;12.07;97.81
59043;BME280;44826;51.596;5.624;2022-10-14T04:11:53;101254.44;;;12.06;97.73
59043;BME280;44826;51.596;5.624;2022-10-14T04:14:19;101251.00;;;12.06;97.65
59043;BME280;44826;51.596;5.624;2022-10-14T04:16:44;101244.91;;;12.05;97.70
59043;BME280;44826;51.596;5.624;2022-10-14T04:19:09;101232.75;;;12.04;97.81
59043;BME280;44826;51.596;5.624;2022-10-14T04:21:35;101231.88;;;12.05;97.76
59043;BME280;44826;51.596;5.624;2022-10-14T04:24:00;101238.84;;;12.05;97.77
59043;BME280;44826;51.596;5.624;2022-10-14T04:26:25;101244.06;;;12.05;98.22
59043;BME280;44826;51.596;5.624;2022-10-14T04:28:50;101243.19;;;12.06;98.12
59043;BME280;44826;51.596;5.624;2022-10-14T04:31:16;101236.19;;;12.06;98.06
59043;BME280;44826;51.596;5.624;2022-10-14T04:33:41;101229.25;;;12.07;98.24
59043;BME280;44826;51.596;5.624;2022-10-14T04:36:06;101232.69;;;12.07;98.25
59043;BME280;44826;51.596;5.624;2022-10-14T04:38:32;101237.91;;;12.07;98.40
59043;BME280;44826;51.596;5.624;2022-10-14T04:40:58;101230.06;;;12.09;98.66
59043;BME280;44826;51.596;5.624;2022-10-14T04:43:23;101219.63;;;12.09;98.40
59043;BME280;44826;51.596;5.624;2022-10-14T04:45:48;101221.34;;;12.10;98.24
59043;BME280;44826;51.596;5.624;2022-10-14T04:48:14;101230.06;;;12.09;98.53
59043;BME280;44826;51.596;5.624;2022-10-14T04:50:40;101230.06;;;12.09;98.50
59043;BME280;44826;51.596;5.624;2022-10-14T04:53:05;101217.91;;;12.08;98.62
59043;BME280;44826;51.596;5.624;2022-10-14T04:55:32;101219.63;;;12.09;98.75
59043;BME280;44826;51.596;5.624;2022-10-14T04:57:57;101218.75;;;12.10;98.66
59043;BME280;44826;51.596;5.624;2022-10-14T05:00:22;101217.03;;;12.09;98.67
59043;BME280;44826;51.596;5.624;2022-10-14T05:02:47;101207.44;;;12.09;98.56
59043;BME280;44826;51.596;5.624;2022-10-14T05:05:13;101209.19;;;12.09;98.66
59043;BME280;44826;51.596;5.624;2022-10-14T05:07:41;101211.75;;;12.10;98.60
59043;BME280;44826;51.596;5.624;2022-10-14T05:10:07;101214.38;;;12.10;98.82
59043;BME280;44826;51.596;5.624;2022-10-14T05:12:35;101213.53;;;12.10;98.72
59043;BME280;44826;51.596;5.624;2022-10-14T05:15:01;101205.69;;;12.10;99.04
59043;BME280;44826;51.596;5.624;2022-10-14T05:17:29;101196.09;;;12.12;99.23
59043;BME280;44826;51.596;5.624;2022-10-14T05:19:54;101191.75;;;12.11;99.06
59043;BME280;44826;51.596;5.624;2022-10-14T05:22:20;101200.44;;;12.11;99.22
59043;BME280;44826;51.596;5.624;2022-10-14T05:24:45;101190.06;;;12.10;98.98
59043;BME280;44826;51.596;5.624;2022-10-14T05:27:10;101189.16;;;12.11;99.17
59043;BME280;44826;51.596;5.624;2022-10-14T05:29:35;101190.00;;;12.11;99.42
59043;BME280;44826;51.596;5.624;2022-10-14T05:32:01;101177.81;;;12.12;99.26
59043;BME280;44826;51.596;5.624;2022-10-14T05:34:26;101182.16;;;12.11;99.32
59043;BME280;44826;51.596;5.624;2022-10-14T05:36:51;101173.53;;;12.09;99.47
59043;BME280;44826;51.596;5.624;2022-10-14T05:39:16;101165.69;;;12.11;99.44
59043;BME280;44826;51.596;5.624;2022-10-14T05:41:42;101165.69;;;12.11;100.00
59043;BME280;44826;51.596;5.624;2022-10-14T05:44:09;101166.47;;;12.13;99.52
59043;BME280;44826;51.596;5.624;2022-10-14T05:46:35;101159.56;;;12.12;99.75
59043;BME280;44826;51.596;5.624;2022-10-14T05:49:00;101147.44;;;12.11;99.91
59043;BME280;44826;51.596;5.624;2022-10-14T05:51:32;101158.66;;;12.13;99.83
59043;BME280;44826;51.596;5.624;2022-10-14T05:53:58;101151.75;;;12.12;99.86
59043;BME280;44826;51.596;5.624;2022-10-14T05:56:24;101156.09;;;12.11;100.00
59043;BME280;44826;51.596;5.624;2022-10-14T05:58:49;101158.66;;;12.13;100.00
59043;BME280;44826;51.596;5.624;2022-10-14T06:01:15;101148.22;;;12.13;100.00
59043;BME280;44826;51.596;5.624;2022-10-14T06:03:40;101147.38;;;12.12;100.00
59043;BME280;44826;51.596;5.624;2022-10-14T06:06:06;101144.72;;;12.14;100.00
59043;BME280;44826;51.596;5.624;2022-10-14T06:08:32;101142.97;;;12.14;100.00
59043;BME280;44826;51.596;5.624;2022-10-14T06:11:01;101140.31;;;12.16;100.00
59043;BME280;44826;51.596;5.624;2022-10-14T06:13:27;101143.78;;;12.17;100.00
59043;BME280;44826;51.596;5.624;2022-10-14T06:15:52;101146.34;;;12.18;100.00
59043;BME280;44826;51.596;5.624;2022-10-14T06:18:18;101130.75;;;12.17;100.00
59043;BME280;44826;51.596;5.624;2022-10-14T06:20:43;101135.00;;;12.19;100.00
59043;BME280;44826;51.596;5.624;2022-10-14T06:23:08;101138.50;;;12.18;100.00
59043;BME280;44826;51.596;5.624;2022-10-14T06:25:34;101141.09;;;12.20;100.00
59043;BME280;44826;51.596;5.624;2022-10-14T06:28:02;101139.34;;;12.20;100.00
59043;BME280;44826;51.596;5.624;2022-10-14T06:30:28;101130.63;;;12.21;100.00
59043;BME280;44826;51.596;5.624;2022-10-14T06:32:53;101135.88;;;12.20;100.00
59043;BME280;44826;51.596;5.624;2022-10-14T06:35:19;101128.91;;;12.20;100.00
59043;BME280;44826;51.596;5.624;2022-10-14T06:37:45;101131.50;;;12.20;100.00
59043;BME280;44826;51.596;5.624;2022-10-14T06:40:10;101130.63;;;12.21;100.00
59043;BME280;44826;51.596;5.624;2022-10-14T06:42:35;101133.16;;;12.23;100.00
59043;BME280;44826;51.596;5.624;2022-10-14T06:45:01;101125.31;;;12.24;100.00
59043;BME280;44826;51.596;5.624;2022-10-14T06:47:26;101131.38;;;12.25;100.00
59043;BME280;44826;51.596;5.624;2022-10-14T06:49:51;101127.84;;;12.27;100.00
59043;BME280;44826;51.596;5.624;2022-10-14T06:52:16;101127.78;;;12.29;100.00
59043;BME280;44826;51.596;5.624;2022-10-14T06:54:42;101124.28;;;12.30;100.00
59043;BME280;44826;51.596;5.624;2022-10-14T06:57:07;101127.72;;;12.30;100.00
59043;BME280;44826;51.596;5.624;2022-10-14T06:59:32;101130.34;;;12.30;100.00
59043;BME280;44826;51.596;5.624;2022-10-14T07:01:57;101119.88;;;12.32;100.00
59043;BME280;44826;51.596;5.624;2022-10-14T07:04:23;101112.00;;;12.34;100.00
59043;BME280;44826;51.596;5.624;2022-10-14T07:06:48;101111.09;;;12.35;100.00
59043;BME280;44826;51.596;5.624;2022-10-14T07:09:13;101108.41;;;12.38;100.00
59043;BME280;44826;51.596;5.624;2022-10-14T07:11:39;101104.91;;;12.39;100.00
59043;BME280;44826;51.596;5.624;2022-10-14T07:14:07;101108.34;;;12.39;100.00
59043;BME280;44826;51.596;5.624;2022-10-14T07:16:32;101115.28;;;12.40;100.00
59043;BME280;44826;51.596;5.624;2022-10-14T07:18:58;101111.78;;;12.41;100.00
59043;BME280;44826;51.596;5.624;2022-10-14T07:21:23;101110.03;;;12.42;100.00
59043;BME280;44826;51.596;5.624;2022-10-14T07:23:48;101108.25;;;12.44;100.00
59043;BME280;44826;51.596;5.624;2022-10-14T07:26:14;101109.84;;;12.48;100.00
59043;BME280;44826;51.596;5.624;2022-10-14T07:28:39;101110.72;;;12.49;100.00
59043;BME280;44826;51.596;5.624;2022-10-14T07:31:09;101115.84;;;12.52;100.00
59043;BME280;44826;51.596;5.624;2022-10-14T07:33:36;101109.66;;;12.54;100.00
59043;BME280;44826;51.596;5.624;2022-10-14T07:36:03;101115.69;;;12.56;100.00
59043;BME280;44826;51.596;5.624;2022-10-14T07:38:29;101114.81;;;12.57;100.00
59043;BME280;44826;51.596;5.624;2022-10-14T07:41:03;101119.13;;;12.58;100.00
59043;BME280;44826;51.596;5.624;2022-10-14T07:43:30;101117.31;;;12.60;100.00
59043;BME280;44826;51.596;5.624;2022-10-14T07:45:59;101112.94;;;12.61;100.00
59043;BME280;44826;51.596;5.624;2022-10-14T07:48:28;101110.31;;;12.63;100.00
59043;BME280;44826;51.596;5.624;2022-10-14T07:50:53;101111.09;;;12.65;100.00
59043;BME280;44826;51.596;5.624;2022-10-14T07:53:19;101108.47;;;12.65;100.00
59043;BME280;44826;51.596;5.624;2022-10-14T07:55:44;101104.97;;;12.66;100.00
59043;BME280;44826;51.596;5.624;2022-10-14T07:58:37;101111.91;;;12.67;100.00
59043;BME280;44826;51.596;5.624;2022-10-14T08:01:01;101104.03;;;12.68;100.00
59043;BME280;44826;51.596;5.624;2022-10-14T08:03:27;101105.75;;;12.69;100.00
59043;BME280;44826;51.596;5.624;2022-10-14T08:06:00;101103.09;;;12.71;100.00
59043;BME280;44826;51.596;5.624;2022-10-14T08:08:26;101094.34;;;12.72;100.00
59043;BME280;44826;51.596;5.624;2022-10-14T08:13:30;101096.81;;;12.77;100.00
59043;BME280;44826;51.596;5.624;2022-10-14T08:15:55;101099.41;;;12.78;100.00
59043;BME280;44826;51.596;5.624;2022-10-14T08:18:21;101100.97;;;12.82;100.00
59043;BME280;44826;51.596;5.624;2022-10-14T08:20:47;101093.13;;;12.84;100.00
59043;BME280;44826;51.596;5.624;2022-10-14T08:23:12;101096.47;;;12.87;100.00
59043;BME280;44826;51.596;5.624;2022-10-14T08:25:38;101092.06;;;12.89;100.00
59043;BME280;44826;51.596;5.624;2022-10-14T08:28:03;101091.16;;;12.90;100.00
59043;BME280;44826;51.596;5.624;2022-10-14T08:30:29;101083.19;;;12.95;100.00
59043;BME280;44826;51.596;5.624;2022-10-14T08:32:54;101076.09;;;12.99;100.00
59043;BME280;44826;51.596;5.624;2022-10-14T08:35:19;101076.78;;;13.05;100.00
59043;BME280;44826;51.596;5.624;2022-10-14T08:37:57;101084.38;;;13.13;100.00
59043;BME280;44826;51.596;5.624;2022-10-14T08:40:22;101080.63;;;13.20;100.00
59043;BME280;44826;51.596;5.624;2022-10-14T08:43:04;101094.34;;;13.27;100.00
59043;BME280;44826;51.596;5.624;2022-10-14T08:45:38;101089.03;;;13.30;100.00
59043;BME280;44826;51.596;5.624;2022-10-14T08:48:14;101083.75;;;13.32;100.00
59043;BME280;44826;51.596;5.624;2022-10-14T08:50:58;101083.69;;;13.33;100.00
59043;BME280;44826;51.596;5.624;2022-10-14T08:53:34;101087.16;;;13.34;100.00
59043;BME280;44826;51.596;5.624;2022-10-14T08:56:02;101088.84;;;13.35;100.00
59043;BME280;44826;51.596;5.624;2022-10-14T08:58:34;101083.63;;;13.35;100.00
59043;BME280;44826;51.596;5.624;2022-10-14T09:03:46;101076.53;;;13.40;100.00
59043;BME280;44826;51.596;5.624;2022-10-14T09:06:21;101075.63;;;13.41;99.78
59043;BME280;44826;51.596;5.624;2022-10-14T09:08:49;101085.19;;;13.42;99.71
59043;BME280;44826;51.596;5.624;2022-10-14T09:11:18;101076.47;;;13.42;99.64
59043;BME280;44826;51.596;5.624;2022-10-14T09:14:18;101077.28;;;13.44;99.67
59043;BME280;44826;51.596;5.624;2022-10-14T09:16:44;101078.03;;;13.47;99.17
59043;BME280;44826;51.596;5.624;2022-10-14T09:19:17;101072.69;;;13.50;99.65
59043;BME280;44826;51.596;5.624;2022-10-14T09:21:53;101068.16;;;13.56;99.43
59043;BME280;44826;51.596;5.624;2022-10-14T09:24:21;101067.19;;;13.58;99.10
59043;BME280;44826;51.596;5.624;2022-10-14T09:26:53;101069.72;;;13.61;98.96
59043;BME280;44826;51.596;5.624;2022-10-14T09:29:25;101059.25;;;13.61;98.79
59043;BME280;44826;51.596;5.624;2022-10-14T09:32:11;101060.03;;;13.65;98.81
59043;BME280;44826;51.596;5.624;2022-10-14T09:34:39;101058.25;;;13.65;98.75
59043;BME280;44826;51.596;5.624;2022-10-14T09:39:37;101052.09;;;13.66;98.66
59043;BME280;44826;51.596;5.624;2022-10-14T09:42:08;101048.53;;;13.69;98.64
59043;BME280;44826;51.596;5.624;2022-10-14T09:44:37;101057.16;;;13.71;98.55
59043;BME280;44826;51.596;5.624;2022-10-14T09:47:04;101058.84;;;13.74;98.58
59043;BME280;44826;51.596;5.624;2022-10-14T09:49:38;101052.75;;;13.73;98.28
59043;BME280;44826;51.596;5.624;2022-10-14T09:52:04;101059.69;;;13.74;98.09
59043;BME280;44826;51.596;5.624;2022-10-14T09:54:30;101052.63;;;13.76;98.13
59043;BME280;44826;51.596;5.624;2022-10-14T09:57:03;101043.88;;;13.77;98.01
59043;BME280;44826;51.596;5.624;2022-10-14T09:59:30;101038.41;;;13.84;98.01
59043;BME280;44826;51.596;5.624;2022-10-14T10:02:02;101042.69;;;13.86;97.75
59043;BME280;44826;51.596;5.624;2022-10-14T10:06:59;101030.34;;;13.90;97.22
59043;BME280;44826;51.596;5.624;2022-10-14T10:09:26;101036.38;;;13.92;97.25
59043;BME280;44826;51.596;5.624;2022-10-14T10:11:51;101035.41;;;13.94;97.50
59043;BME280;44826;51.596;5.624;2022-10-14T10:14:29;101035.38;;;13.96;97.49
59043;BME280;44826;51.596;5.624;2022-10-14T10:19:44;101034.50;;;13.95;97.03
59043;BME280;44826;51.596;5.624;2022-10-14T10:22:28;101028.53;;;13.92;97.38
59043;BME280;44826;51.596;5.624;2022-10-14T10:27:43;101027.75;;;13.90;97.97
59043;BME280;44826;51.596;5.624;2022-10-14T10:30:28;101025.94;;;13.92;98.03
59043;BME280;44826;51.596;5.624;2022-10-14T10:33:08;101018.91;;;13.92;98.52
59043;BME280;44826;51.596;5.624;2022-10-14T10:36:11;101016.19;;;13.95;98.79
59043;BME280;44826;51.596;5.624;2022-10-14T10:41:53;101015.25;;;13.98;98.97
59043;BME280;44826;51.596;5.624;2022-10-14T10:49:58;101001.38;;;13.96;99.45
59043;BME280;44826;51.596;5.624;2022-10-14T10:52:50;101007.44;;;13.96;99.35
59043;BME280;44826;51.596;5.624;2022-10-14T11:00:46;100996.19;;;13.94;99.55
59043;BME280;44826;51.596;5.624;2022-10-14T11:06:00;100992.63;;;13.97;99.97
59043;BME280;44826;51.596;5.624;2022-10-14T11:08:48;100987.31;;;13.99;100.00
59043;BME280;44826;51.596;5.624;2022-10-14T11:20:19;100976.44;;;14.09;100.00
59043;BME280;44826;51.596;5.624;2022-10-14T11:23:34;100974.50;;;14.15;100.00
59043;BME280;44826;51.596;5.624;2022-10-14T11:26:08;100963.19;;;14.14;100.00
59043;BME280;44826;51.596;5.624;2022-10-14T11:36:46;100965.97;;;14.09;100.00
59043;BME280;44826;51.596;5.624;2022-10-14T11:39:29;100961.59;;;14.10;100.00
59043;BME280;44826;51.596;5.624;2022-10-14T11:42:17;100958.13;;;14.09;100.00
59043;BME280;44826;51.596;5.624;2022-10-14T11:44:57;100959.91;;;14.09;100.00
59043;BME280;44826;51.596;5.624;2022-10-14T11:47:28;100953.81;;;14.08;100.00
59043;BME280;44826;51.596;5.624;2022-10-14T11:50:04;100946.84;;;14.09;100.00
59043;BME280;44826;51.596;5.624;2022-10-14T11:52:41;100934.59;;;14.09;100.00
59043;BME280;44826;51.596;5.624;2022-10-14T11:55:35;100930.94;;;14.14;100.00
59043;BME280;44826;51.596;5.624;2022-10-14T11:58:14;100933.44;;;14.17;100.00
59043;BME280;44826;51.596;5.624;2022-10-14T12:00:42;100924.63;;;14.19;100.00
59043;BME280;44826;51.596;5.624;2022-10-14T12:06:09;100919.25;;;14.22;100.00
59043;BME280;44826;51.596;5.624;2022-10-14T12:14:18;100914.97;;;14.20;100.00
59043;BME280;44826;51.596;5.624;2022-10-14T12:16:46;100910.66;;;14.19;100.00
59043;BME280;44826;51.596;5.624;2022-10-14T12:19:16;100917.56;;;14.21;100.00
59043;BME280;44826;51.596;5.624;2022-10-14T12:24:38;100911.75;;;14.35;100.00
59043;BME280;44826;51.596;5.624;2022-10-14T12:27:09;100902.03;;;14.39;100.00
59043;BME280;44826;51.596;5.624;2022-10-14T12:29:43;100899.34;;;14.40;100.00
59043;BME280;44826;51.596;5.624;2022-10-14T12:34:42;100888.03;;;14.40;100.00
59043;BME280;44826;51.596;5.624;2022-10-14T12:39:50;100879.31;;;14.39;100.00
59043;BME280;44826;51.596;5.624;2022-10-14T12:42:17;100866.22;;;14.39;100.00
59043;BME280;44826;51.596;5.624;2022-10-14T12:44:54;100868.72;;;14.42;100.00
59043;BME280;44826;51.596;5.624;2022-10-14T12:49:52;100866.91;;;14.45;100.00
59043;BME280;44826;51.596;5.624;2022-10-14T12:52:26;100868.59;;;14.46;100.00
59043;BME280;44826;51.596;5.624;2022-10-14T12:54:53;100868.47;;;14.49;100.00
59043;BME280;44826;51.596;5.624;2022-10-14T12:57:26;100864.06;;;14.49;100.00
59043;BME280;44826;51.596;5.624;2022-10-14T12:59:53;100864.16;;;14.48;100.00
59043;BME280;44826;51.596;5.624;2022-10-14T13:02:31;100874.66;;;14.46;100.00
59043;BME280;44826;51.596;5.624;2022-10-14T13:05:00;100873.03;;;14.44;100.00
59043;BME280;44826;51.596;5.624;2022-10-14T13:07:45;100865.19;;;14.44;100.00
59043;BME280;44826;51.596;5.624;2022-10-14T13:16:05;100854.97;;;14.37;100.00
59043;BME280;44826;51.596;5.624;2022-10-14T13:21:01;100852.50;;;14.34;100.00
59043;BME280;44826;51.596;5.624;2022-10-14T13:28:36;100850.91;;;14.30;100.00
59043;BME280;44826;51.596;5.624;2022-10-14T13:31:20;100852.63;;;14.31;100.00
59043;BME280;44826;51.596;5.624;2022-10-14T13:33:52;100843.97;;;14.29;100.00
59043;BME280;44826;51.596;5.624;2022-10-14T13:36:26;100859.56;;;14.32;100.00
59043;BME280;44826;51.596;5.624;2022-10-14T13:38:57;100857.78;;;14.33;100.00
59043;BME280;44826;51.596;5.624;2022-10-14T13:41:24;100856.78;;;14.35;100.00
59043;BME280;44826;51.596;5.624;2022-10-14T13:43:53;100850.66;;;14.36;100.00
59043;BME280;44826;51.596;5.624;2022-10-14T13:46:40;100852.22;;;14.40;100.00
59043;BME280;44826;51.596;5.624;2022-10-14T13:49:10;100846.88;;;14.44;100.00
59043;BME280;44826;51.596;5.624;2022-10-14T13:54:21;100837.31;;;14.42;100.00
59043;BME280;44826;51.596;5.624;2022-10-14T13:57:14;100844.25;;;14.44;100.00
59043;BME280;44826;51.596;5.624;2022-10-14T13:59:42;100841.63;;;14.44;99.67
59043;BME280;44826;51.596;5.624;2022-10-14T14:02:28;100838.78;;;14.50;99.87
59043;BME280;44826;51.596;5.624;2022-10-14T14:04:56;100829.59;;;14.60;99.62
59043;BME280;44826;51.596;5.624;2022-10-14T14:07:27;100818.88;;;14.66;99.42
59043;BME280;44826;51.596;5.624;2022-10-14T14:10:00;100829.09;;;14.72;99.46
59043;BME280;44826;51.596;5.624;2022-10-14T14:12:27;100825.44;;;14.77;99.48
59043;BME280;44826;51.596;5.624;2022-10-14T14:14:52;100823.47;;;14.82;99.17
59043;BME280;44826;51.596;5.624;2022-10-14T14:17:22;100826.66;;;14.89;99.32
59043;BME280;44826;51.596;5.624;2022-10-14T14:19:50;100821.22;;;14.93;99.16
59043;BME280;44826;51.596;5.624;2022-10-14T14:22:27;100821.09;;;14.96;98.63
59043;BME280;44826;51.596;5.624;2022-10-14T14:27:47;100812.69;;;14.88;97.44
59043;BME280;44826;51.596;5.624;2022-10-14T14:30:21;100805.75;;;14.87;97.73
59043;BME280;44826;51.596;5.624;2022-10-14T14:32:47;100805.72;;;14.89;97.88
59043;BME280;44826;51.596;5.624;2022-10-14T14:35:13;100804.84;;;14.88;97.64
59043;BME280;44826;51.596;5.624;2022-10-14T14:37:41;100807.53;;;14.86;97.39
59043;BME280;44826;51.596;5.624;2022-10-14T14:40:23;100813.69;;;14.85;97.10
59043;BME280;44826;51.596;5.624;2022-10-14T14:42:58;100821.75;;;14.81;96.74
59043;BME280;44826;51.596;5.624;2022-10-14T14:45:27;100820.19;;;14.77;96.77